Time;durP1;ratioP1;P1;durP2;ratioP2;P2;SDS_P1;SDS_P2;PMS_P1;PMS_P2;Temp;Humidity;BMP_temperature;BMP_pressure;BME280_temperature;BME280_humidity;BME280_pressure;Samples;Min_cycle;Max_cycle;Signal;HPM_P1;HPM_P2
2021/12/24 00:00:57;;;;;;;4.57;4.20;;;8.80;99.90;8.30;100492.00;;;;5115252;28;20356;-69
2021/12/24 00:03:30;;;;;;;7.53;5.03;;;8.90;99.90;8.50;100495.00;;;;5115104;28;20551;-69
2021/12/24 00:06:09;;;;;;;11.57;7.77;;;8.80;99.90;8.50;100486.00;;;;5114697;28;20208;-69
2021/12/24 00:08:43;;;;;;;8.17;5.90;;;8.90;99.90;8.50;100482.00;;;;5097974;28;20597;-69
2021/12/24 00:11:20;;;;;;;7.17;5.00;;;8.90;99.90;8.60;100491.00;;;;5116302;27;20180;-69
2021/12/24 00:13:52;;;;;;;7.37;5.83;;;8.90;99.90;8.70;100485.00;;;;5114960;28;20192;-69
2021/12/24 00:16:41;;;;;;;3.03;2.10;;;8.90;99.90;8.60;100462.00;;;;5114623;28;20193;-69
2021/12/24 00:20:05;;;;;;;5.97;2.63;;;8.90;99.90;8.70;100471.00;;;;5114809;28;20636;-66
2021/12/24 00:36:28;;;;;;;8.67;5.97;;;8.90;99.90;8.60;100436.00;;;;5115216;28;20193;-69
2021/12/24 00:39:05;;;;;;;7.47;6.43;;;9.00;99.90;8.60;100481.00;;;;5114643;28;20549;-67
2021/12/24 00:41:42;;;;;;;4.10;3.70;;;9.00;99.90;8.70;100481.00;;;;5114476;28;20588;-67
2021/12/24 00:44:18;;;;;;;13.37;7.67;;;9.00;99.90;8.70;100470.00;;;;5114206;28;20683;-66
2021/12/24 00:46:59;;;;;;;13.00;8.73;;;9.00;99.90;8.90;100465.00;;;;5115297;27;20175;-69
2021/12/24 00:49:35;;;;;;;12.10;8.80;;;9.10;99.90;9.10;100474.00;;;;5113957;28;20174;-67
2021/12/24 00:52:21;;;;;;;9.87;7.50;;;9.20;99.90;8.90;100474.00;;;;5114015;28;20197;-67
2021/12/24 00:55:05;;;;;;;16.13;9.63;;;9.20;99.90;8.80;100453.00;;;;5113414;28;20235;-67
2021/12/24 00:58:12;;;;;;;6.43;4.47;;;9.10;99.90;8.70;100472.00;;;;5115068;28;20260;-69
2021/12/24 01:00:48;;;;;;;8.93;6.30;;;9.10;99.90;8.80;100474.00;;;;5113865;28;20189;-67
2021/12/24 01:03:25;;;;;;;12.47;8.50;;;9.10;99.90;8.80;100480.00;;;;5115010;28;20642;-66
2021/12/24 01:06:05;;;;;;;7.50;3.80;;;9.20;99.90;8.80;100444.00;;;;5096935;28;20169;-67
2021/12/24 01:08:41;;;;;;;3.57;3.27;;;9.10;99.90;8.80;100438.00;;;;5113864;28;20213;-67
2021/12/24 01:11:21;;;;;;;17.73;11.47;;;9.20;99.90;9.00;100469.00;;;;5096858;28;20522;-67
2021/12/24 01:14:01;;;;;;;3.60;2.87;;;9.30;99.90;9.00;100475.00;;;;5114142;28;20577;-67
2021/12/24 01:16:43;;;;;;;12.27;9.83;;;9.20;99.90;9.10;100472.00;;;;5113611;28;20540;-67
2021/12/24 01:19:23;;;;;;;12.87;7.70;;;9.30;99.90;8.90;100482.00;;;;5113497;28;20682;-66
2021/12/24 01:22:49;;;;;;;2.97;2.60;;;9.30;99.90;8.90;100470.00;;;;5113951;28;20175;-66
2021/12/24 01:28:02;;;;;;;9.67;7.47;;;9.30;99.90;8.90;100460.00;;;;5113737;28;20516;-67
2021/12/24 01:39:25;;;;;;;4.00;3.70;;;9.40;99.90;9.10;100454.00;;;;5113794;28;20636;-67
2021/12/24 01:44:50;;;;;;;2.20;2.00;;;9.50;99.90;9.50;100451.00;;;;5114356;28;20231;-67
2021/12/24 01:47:24;;;;;;;6.20;3.73;;;9.50;99.90;9.50;100427.00;;;;5095762;28;20211;-67
2021/12/24 01:49:59;;;;;;;1.33;1.17;;;9.70;99.90;9.40;100453.00;;;;5113333;28;20289;-67
2021/12/24 01:52:37;;;;;;;8.20;4.80;;;9.60;99.90;9.10;100445.00;;;;5096252;28;20198;-67
2021/12/24 01:55:15;;;;;;;1.63;1.53;;;9.50;99.90;9.20;100461.00;;;;5113247;28;20156;-67
2021/12/24 01:57:52;;;;;;;3.03;2.73;;;9.50;99.90;9.10;100454.00;;;;5113202;28;20166;-67
2021/12/24 02:00:36;;;;;;;5.47;3.53;;;9.50;99.90;9.10;100461.00;;;;5112918;28;20261;-67
2021/12/24 02:03:17;;;;;;;18.40;8.13;;;9.50;99.90;9.10;100470.00;;;;5114054;28;20191;-67
2021/12/24 02:05:51;;;;;;;3.10;2.80;;;9.50;99.90;9.20;100461.00;;;;5112675;28;20189;-67
2021/12/24 02:08:29;;;;;;;5.40;3.70;;;9.50;99.90;9.10;100470.00;;;;5114560;28;20179;-67
2021/12/24 02:11:08;;;;;;;5.60;4.07;;;9.40;99.90;9.00;100461.00;;;;5113050;28;20184;-67
2021/12/24 02:13:44;;;;;;;6.17;4.17;;;9.40;99.90;9.00;100454.00;;;;5112828;28;20183;-67
2021/12/24 02:16:43;;;;;;;4.47;2.50;;;9.40;99.90;9.10;100446.00;;;;5114224;28;20193;-67
2021/12/24 02:30:53;;;;;;;16.67;7.43;;;9.50;99.90;9.20;100452.00;;;;5112588;28;20180;-67
2021/12/24 02:33:32;;;;;;;1.90;1.80;;;9.50;99.90;9.30;100448.00;;;;5112195;28;20589;-67
2021/12/24 02:36:09;;;;;;;3.40;3.13;;;9.50;99.90;9.30;100445.00;;;;5113988;28;20631;-67
2021/12/24 02:38:50;;;;;;;8.40;6.87;;;9.60;99.90;9.20;100456.00;;;;5112640;28;20175;-67
2021/12/24 02:41:27;;;;;;;1.73;1.63;;;9.60;99.90;9.50;100442.00;;;;5112854;28;20615;-67
2021/12/24 02:44:04;;;;;;;4.50;4.13;;;9.60;99.90;9.40;100437.00;;;;5113448;28;20628;-67
2021/12/24 02:47:41;;;;;;;7.20;5.90;;;9.60;99.90;9.20;100429.00;;;;5095728;28;20273;-66
2021/12/24 02:55:15;;;;;;;2.43;2.13;;;9.60;99.90;9.30;100434.00;;;;5112685;28;20184;-67
2021/12/24 02:57:52;;;;;;;2.73;2.50;;;9.60;99.90;9.60;100439.00;;;;5095401;28;20177;-67
2021/12/24 03:00:27;;;;;;;3.40;2.80;;;9.70;99.90;9.40;100444.00;;;;5111969;28;20175;-67
2021/12/24 03:03:01;;;;;;;6.13;5.40;;;9.70;99.90;9.70;100427.00;;;;5112268;28;20193;-67
2021/12/24 03:05:41;;;;;;;4.50;4.20;;;9.70;99.90;9.50;100459.00;;;;5112153;28;20220;-67
2021/12/24 03:08:20;;;;;;;1.47;1.37;;;9.70;99.90;9.40;100459.00;;;;5112105;28;20267;-67
2021/12/24 03:10:59;;;;;;;4.43;2.60;;;9.70;99.90;9.60;100453.00;;;;5112309;28;20209;-67
2021/12/24 03:13:35;;;;;;;15.93;7.17;;;9.80;99.90;9.70;100467.00;;;;5094993;28;20193;-67
2021/12/24 03:16:13;;;;;;;7.07;5.43;;;9.80;99.90;9.60;100457.00;;;;5112321;28;20200;-67
2021/12/24 03:18:52;;;;;;;12.73;5.07;;;9.80;99.90;9.80;100460.00;;;;5114674;28;20205;-67
2021/12/24 03:21:34;;;;;;;18.93;7.80;;;9.90;99.90;9.90;100415.00;;;;5116199;28;20183;-67
2021/12/24 03:26:46;;;;;;;4.07;3.77;;;10.00;99.90;9.60;100451.00;;;;5116945;28;20185;-67
2021/12/24 03:29:26;;;;;;;7.87;4.73;;;9.90;99.90;9.90;100434.00;;;;5115399;28;20183;-67
2021/12/24 03:32:02;;;;;;;4.83;4.23;;;10.00;99.90;10.10;100448.00;;;;5099339;28;20217;-67
2021/12/24 03:34:39;;;;;;;8.73;5.83;;;10.10;99.90;9.80;100437.00;;;;5117187;28;20179;-67
2021/12/24 03:37:16;;;;;;;25.37;9.57;;;10.00;99.90;9.90;100438.00;;;;5115622;28;20211;-67
2021/12/24 03:39:52;;;;;;;7.10;6.37;;;10.10;99.90;10.10;100449.00;;;;5115663;28;20172;-67
2021/12/24 03:42:27;;;;;;;9.27;7.37;;;10.10;99.90;9.70;100440.00;;;;5116373;28;20269;-68
2021/12/24 03:45:18;;;;;;;5.27;4.83;;;10.00;99.90;9.80;100457.00;;;;5115543;28;20190;-68
2021/12/24 03:48:02;;;;;;;4.30;3.80;;;10.00;99.90;9.80;100439.00;;;;5115849;28;20218;-67
2021/12/24 03:51:25;;;;;;;11.13;6.97;;;10.00;99.90;10.00;100442.00;;;;5115584;28;20578;-67
2021/12/24 03:56:36;;;;;;;3.37;2.50;;;10.10;99.90;9.70;100438.00;;;;5115333;28;20665;-67
2021/12/24 03:59:12;;;;;;;10.63;7.20;;;10.10;99.90;9.80;100434.00;;;;5115326;28;20182;-67
2021/12/24 04:01:49;;;;;;;1.70;1.57;;;10.00;99.90;9.70;100429.00;;;;5116343;28;20183;-67
2021/12/24 04:04:30;;;;;;;8.37;5.20;;;9.90;99.90;9.60;100425.00;;;;5098137;28;20172;-67
2021/12/24 04:07:06;;;;;;;4.27;1.83;;;9.90;99.90;9.90;100437.00;;;;5115244;28;20209;-67
2021/12/24 04:09:51;;;;;;;1.40;1.33;;;9.90;99.90;9.90;100427.00;;;;5115126;28;20177;-69
2021/12/24 04:12:26;;;;;;;22.57;9.27;;;9.90;99.90;10.10;100440.00;;;;5115624;28;20274;-68
2021/12/24 04:15:05;;;;;;;0.70;0.70;;;10.10;99.90;9.80;100434.00;;;;5115955;27;20662;-67
2021/12/24 04:17:43;;;;;;;6.03;3.67;;;10.00;99.90;9.60;100435.00;;;;5114988;28;20182;-68
2021/12/24 04:26:08;;;;;;;3.53;2.40;;;9.90;99.90;9.70;100433.00;;;;5114534;28;20198;-67
2021/12/24 04:28:42;;;;;;;20.63;4.93;;;9.90;99.90;9.30;100422.00;;;;5116173;28;20514;-67
2021/12/24 04:31:18;;;;;;;2.17;1.37;;;9.80;99.90;9.50;100431.00;;;;5114749;28;20256;-67
2021/12/24 04:34:03;;;;;;;5.40;3.80;;;9.80;99.90;9.40;100433.00;;;;5114733;28;20224;-67
2021/12/24 05:03:01;;;;;;;5.17;2.80;;;9.80;99.90;9.40;100428.00;;;;5114368;28;20660;-67
2021/12/24 05:08:24;;;;;;;6.73;0.70;;;9.60;99.90;9.30;100434.00;;;;5113935;28;20533;-67
2021/12/24 05:10:58;;;;;;;2.10;1.33;;;9.60;99.90;9.50;100387.00;;;;5114481;28;20201;-68
2021/12/24 05:13:32;;;;;;;5.63;2.37;;;9.60;99.90;9.30;100438.00;;;;5113849;28;20294;-68
2021/12/24 05:16:41;;;;;;;1.83;1.73;;;9.60;99.90;9.50;100436.00;;;;5114149;28;20252;-68
2021/12/24 05:22:00;;;;;;;4.97;4.47;;;9.60;99.90;9.10;100438.00;;;;5114983;28;20531;-68
2021/12/24 05:24:37;;;;;;;6.87;3.73;;;9.50;99.90;9.30;100443.00;;;;5113555;28;20184;-68
2021/12/24 05:27:17;;;;;;;1.67;1.53;;;9.50;99.90;9.40;100438.00;;;;5114769;28;20163;-68
2021/12/24 05:29:54;;;;;;;11.03;3.30;;;9.60;99.90;9.10;100434.00;;;;5113595;28;20169;-67
2021/12/24 05:32:28;;;;;;;7.20;4.23;;;9.50;99.90;9.50;100443.00;;;;5114347;28;20245;-68
2021/12/24 05:35:02;;;;;;;5.50;4.60;;;9.60;99.90;9.60;100443.00;;;;5113759;28;20160;-67
2021/12/24 05:37:37;;;;;;;11.50;5.60;;;9.70;99.90;9.20;100436.00;;;;5114510;28;20174;-68
2021/12/24 05:40:14;;;;;;;6.03;4.00;;;9.60;99.90;9.50;100445.00;;;;5112916;28;20173;-68
2021/12/24 05:42:51;;;;;;;8.10;5.00;;;9.60;99.90;9.20;100407.00;;;;5113674;28;20184;-67
2021/12/24 05:45:27;;;;;;;2.20;2.10;;;9.50;99.90;9.20;100442.00;;;;5114542;28;20189;-68
2021/12/24 05:48:07;;;;;;;13.37;6.87;;;9.50;99.90;9.60;100451.00;;;;5113383;28;20173;-68
2021/12/24 05:50:43;;;;;;;10.13;6.50;;;9.60;99.90;9.20;100451.00;;;;5113135;28;20164;-67
2021/12/24 05:53:19;;;;;;;23.97;12.17;;;9.60;99.90;9.30;100442.00;;;;5113485;28;20685;-67
2021/12/24 05:56:01;;;;;;;8.17;5.10;;;9.60;99.90;9.50;100443.00;;;;5114460;28;20176;-67
2021/12/24 05:58:41;;;;;;;9.83;6.37;;;9.70;99.90;9.50;100447.00;;;;5113047;28;20258;-67
2021/12/24 06:01:18;;;;;;;14.73;7.60;;;9.70;99.90;9.50;100450.00;;;;5113172;28;20532;-68
2021/12/24 06:03:54;;;;;;;10.00;6.97;;;9.70;99.90;9.30;100432.00;;;;5095832;28;20539;-67
2021/12/24 06:06:31;;;;;;;2.17;1.73;;;9.70;99.90;9.40;100440.00;;;;5113141;28;20173;-67
2021/12/24 06:09:08;;;;;;;18.60;7.80;;;9.60;99.90;9.30;100438.00;;;;5112483;28;20161;-67
2021/12/24 06:11:41;;;;;;;7.43;3.93;;;9.60;99.90;9.30;100443.00;;;;5096085;28;20206;-67
2021/12/24 06:14:12;;;;;;;0.97;0.70;;;9.60;99.90;9.40;100446.00;;;;5114088;28;20183;-67
2021/12/24 06:16:49;;;;;;;11.47;4.83;;;9.60;99.90;9.30;100463.00;;;;5114069;28;20176;-67
2021/12/24 06:19:18;;;;;;;15.37;7.37;;;9.70;99.90;9.60;100409.00;;;;5112672;28;20153;-67
2021/12/24 06:21:55;;;;;;;4.27;3.50;;;9.70;99.90;9.60;100443.00;;;;5113729;28;20178;-67
2021/12/24 06:24:28;;;;;;;3.27;2.30;;;9.70;99.90;9.40;100459.00;;;;5111964;28;20205;-67
2021/12/24 06:27:03;;;;;;;7.43;5.33;;;9.60;99.90;9.30;100410.00;;;;5112607;28;20313;-67
2021/12/24 06:29:39;;;;;;;10.40;7.07;;;9.60;99.90;9.40;100451.00;;;;5111849;28;20565;-67
2021/12/24 06:32:19;;;;;;;4.80;4.43;;;9.70;99.90;9.70;100448.00;;;;5113233;28;20574;-67
2021/12/24 06:34:53;;;;;;;19.33;6.70;;;9.70;99.90;9.50;100453.00;;;;5112617;28;20206;-67
2021/12/24 06:37:25;;;;;;;17.30;6.77;;;9.70;99.90;9.40;100444.00;;;;5113629;28;20179;-67
2021/12/24 06:40:01;;;;;;;12.33;6.13;;;9.70;99.90;9.50;100440.00;;;;5112337;28;20712;-67
2021/12/24 06:42:35;;;;;;;0.93;0.47;;;9.70;99.90;9.50;100436.00;;;;5112501;28;20209;-67
2021/12/24 06:45:12;;;;;;;11.67;9.20;;;9.60;99.90;9.40;100433.00;;;;5113657;28;20206;-67
2021/12/24 06:47:43;;;;;;;12.77;7.47;;;9.60;99.90;9.20;100419.00;;;;5113914;28;20636;-67
2021/12/24 06:50:17;;;;;;;11.60;6.60;;;9.50;99.90;9.30;100433.00;;;;5094593;28;20787;-67
2021/12/24 06:52:52;;;;;;;15.27;9.27;;;9.60;99.90;9.40;100445.00;;;;5111923;28;20226;-68
2021/12/24 06:55:29;;;;;;;4.17;3.53;;;9.60;99.90;9.20;100454.00;;;;5116549;28;20192;-67
2021/12/24 06:58:05;;;;;;;1.50;1.40;;;9.60;99.90;9.30;100442.00;;;;5116523;28;20177;-67
2021/12/24 07:00:41;;;;;;;4.67;3.03;;;9.50;99.90;9.60;100446.00;;;;5099344;28;20188;-67
2021/12/24 07:03:18;;;;;;;1.50;1.17;;;9.50;99.90;9.40;100410.00;;;;5116233;28;20164;-68
2021/12/24 07:05:59;;;;;;;1.13;1.10;;;9.60;99.90;9.30;100441.00;;;;5116144;28;20587;-67
2021/12/24 07:08:36;;;;;;;17.03;8.37;;;9.50;99.90;9.60;100448.00;;;;5116396;28;20186;-67
2021/12/24 07:11:12;;;;;;;4.10;2.90;;;9.60;99.90;9.30;100454.00;;;;5116013;28;20623;-67
2021/12/24 07:13:48;;;;;;;10.20;6.20;;;9.60;99.90;9.50;100450.00;;;;5116055;28;20205;-67
2021/12/24 07:16:25;;;;;;;40.77;4.57;;;9.60;99.90;9.20;100453.00;;;;5117637;28;20168;-67
2021/12/24 07:19:02;;;;;;;0.70;0.70;;;9.60;99.90;9.30;100441.00;;;;5098878;28;20181;-67
2021/12/24 07:21:40;;;;;;;4.17;3.87;;;9.60;99.90;9.50;100453.00;;;;5116931;28;20222;-67
2021/12/24 07:24:19;;;;;;;2.83;2.40;;;9.60;99.90;9.40;100465.00;;;;5116032;28;20186;-67
2021/12/24 07:26:55;;;;;;;7.17;3.70;;;9.60;99.90;9.30;100462.00;;;;5099338;28;20182;-67
2021/12/24 07:29:34;;;;;;;0.20;0.20;;;9.60;99.90;9.70;100463.00;;;;5115344;28;20198;-67
2021/12/24 07:32:11;;;;;;;5.53;2.97;;;9.70;99.90;9.50;100465.00;;;;5115668;28;20220;-67
2021/12/24 07:34:45;;;;;;;0.20;0.20;;;9.70;99.90;9.50;100465.00;;;;5115434;28;20186;-67
2021/12/24 07:37:18;;;;;;;4.73;3.40;;;9.70;99.90;9.40;100468.00;;;;5115935;28;20184;-67
2021/12/24 07:39:52;;;;;;;3.90;2.13;;;9.70;99.90;9.30;100463.00;;;;5098562;28;20545;-68
2021/12/24 07:42:28;;;;;;;9.60;7.63;;;9.60;99.90;9.30;100456.00;;;;5115588;28;20178;-67
2021/12/24 07:44:53;;;;;;;4.57;3.37;;;9.60;99.90;9.30;100440.00;;;;5115247;28;20649;-68
2021/12/24 07:47:28;;;;;;;5.90;3.13;;;9.60;99.90;9.30;100439.00;;;;5115833;28;20181;-68
2021/12/24 07:50:14;;;;;;;5.90;4.33;;;9.60;99.90;9.30;100448.00;;;;5076109;28;20184;-67
2021/12/24 07:52:48;;;;;;;1.13;1.13;;;9.60;99.90;9.30;100440.00;;;;5059860;28;20243;-67
2021/12/24 07:55:25;;;;;;;2.23;1.57;;;9.60;99.90;9.40;100445.00;;;;5074712;28;20193;-67
2021/12/24 07:57:56;;;;;;;5.33;4.90;;;9.60;99.90;9.50;100435.00;;;;5075949;28;20527;-67
2021/12/24 08:00:36;;;;;;;9.93;5.83;;;9.60;99.90;9.50;100441.00;;;;5074582;28;20180;-67
2021/12/24 08:03:10;;;;;;;0.90;0.90;;;9.70;99.90;9.20;100454.00;;;;5074978;28;20753;-67
2021/12/24 08:05:48;;;;;;;1.53;1.43;;;9.60;99.90;9.90;100453.00;;;;5073857;28;20203;-68
2021/12/24 08:08:23;;;;;;;0.63;0.50;;;9.70;99.90;9.90;100452.00;;;;5074733;28;20184;-67
2021/12/24 08:10:58;;;;;;;0.30;0.30;;;9.80;99.90;9.80;100447.00;;;;5074320;28;20177;-67
2021/12/24 08:13:42;;;;;;;0.47;0.47;;;9.90;99.90;10.40;100445.00;;;;5074448;28;20209;-67
2021/12/24 08:16:24;;;;;;;0.30;0.30;;;10.10;99.90;9.90;100429.00;;;;5074148;28;20212;-67
2021/12/24 08:19:04;;;;;;;0.30;0.30;;;9.90;99.90;10.60;100435.00;;;;5075485;28;20189;-67
2021/12/24 08:21:37;;;;;;;0.30;0.30;;;10.20;99.90;10.40;100427.00;;;;5075357;28;20304;-67
2021/12/24 08:24:16;;;;;;;1.00;1.00;;;10.20;99.90;10.20;100435.00;;;;5074770;28;20700;-67
2021/12/24 08:26:56;;;;;;;4.23;3.80;;;10.10;99.90;9.70;100430.00;;;;5074424;28;20169;-67
2021/12/24 08:29:32;;;;;;;0.77;0.77;;;10.00;99.90;9.70;100424.00;;;;5074303;28;20189;-67
2021/12/24 08:32:04;;;;;;;12.83;11.37;;;9.80;99.90;9.80;100428.00;;;;5075032;28;20213;-67
2021/12/24 08:34:42;;;;;;;6.23;3.70;;;9.80;99.90;9.30;100417.00;;;;5074087;28;20184;-67
2021/12/24 08:37:19;;;;;;;2.40;2.20;;;9.60;99.90;9.40;100430.00;;;;5073769;28;20283;-67
2021/12/24 08:39:53;;;;;;;3.07;2.87;;;9.50;99.90;9.80;100430.00;;;;5073991;28;20501;-67
2021/12/24 08:42:27;;;;;;;12.10;7.90;;;9.70;99.90;9.80;100388.00;;;;5073618;28;20605;-67
2021/12/24 08:45:03;;;;;;;0.80;0.80;;;9.80;99.90;9.90;100409.00;;;;5073916;28;20702;-67
2021/12/24 08:47:37;;;;;;;4.20;3.80;;;9.80;99.90;9.70;100408.00;;;;5074531;28;20636;-67
2021/12/24 08:50:20;;;;;;;3.87;3.60;;;9.70;99.90;9.40;100420.00;;;;5073726;28;20181;-67
2021/12/24 08:52:57;;;;;;;0.60;0.60;;;9.70;99.90;9.40;100416.00;;;;5074766;28;20204;-67
2021/12/24 08:55:37;;;;;;;3.60;2.53;;;9.50;99.90;9.80;100429.00;;;;5073498;28;20236;-67
2021/12/24 08:58:12;;;;;;;1.93;1.77;;;9.70;99.90;9.20;100412.00;;;;5074005;28;20196;-67
2021/12/24 09:00:45;;;;;;;10.33;4.27;;;9.60;99.90;9.00;100418.00;;;;5073491;28;20159;-67
2021/12/24 09:03:21;;;;;;;6.27;5.50;;;9.50;99.90;9.20;100427.00;;;;5056797;28;20215;-68
2021/12/24 09:05:58;;;;;;;0.73;0.73;;;9.50;99.90;9.10;100427.00;;;;5073186;28;20180;-68
2021/12/24 09:08:42;;;;;;;13.83;6.53;;;9.50;99.90;9.00;100434.00;;;;5073339;28;20224;-68
2021/12/24 09:11:18;;;;;;;4.30;1.90;;;9.40;99.90;9.00;100433.00;;;;5057413;28;20188;-68
2021/12/24 09:13:55;;;;;;;2.17;1.97;;;9.40;99.90;9.10;100435.00;;;;5056625;28;20250;-68
2021/12/24 09:16:33;;;;;;;2.40;2.27;;;9.50;99.90;9.20;100446.00;;;;5073254;28;20176;-68
2021/12/24 09:19:11;;;;;;;7.20;6.43;;;9.50;99.90;9.60;100444.00;;;;5073094;28;20199;-68
2021/12/24 09:21:51;;;;;;;4.60;4.03;;;9.60;99.90;9.30;100435.00;;;;5074439;28;20179;-68
2021/12/24 09:24:30;;;;;;;13.47;5.17;;;9.60;99.90;9.20;100394.00;;;;5072978;28;20175;-67
2021/12/24 09:27:07;;;;;;;14.33;7.97;;;9.60;99.90;9.40;100401.00;;;;5073965;28;20165;-68
2021/12/24 09:29:46;;;;;;;8.47;5.70;;;9.50;99.90;9.20;100442.00;;;;5074050;28;20161;-68
2021/12/24 09:32:20;;;;;;;2.27;1.43;;;9.50;99.90;9.20;100442.00;;;;5073517;28;20230;-68
2021/12/24 09:34:57;;;;;;;2.13;1.93;;;9.50;99.90;9.10;100433.00;;;;5072802;28;20186;-68
2021/12/24 09:37:28;;;;;;;12.30;4.57;;;9.50;99.90;9.20;100406.00;;;;5073724;28;20166;-68
2021/12/24 09:39:59;;;;;;;13.77;6.90;;;9.50;99.90;9.30;100440.00;;;;5072507;28;20266;-67
2021/12/24 09:42:36;;;;;;;0.70;0.70;;;9.50;99.90;9.10;100425.00;;;;5072764;28;20270;-68
2021/12/24 09:45:09;;;;;;;5.50;3.93;;;9.50;99.90;9.30;100436.00;;;;5073745;28;20248;-68
2021/12/24 09:47:44;;;;;;;23.77;2.23;;;9.50;99.90;9.40;100447.00;;;;5072519;28;20615;-68
2021/12/24 09:50:23;;;;;;;5.00;4.53;;;9.50;99.90;9.60;100418.00;;;;5055950;28;20216;-68
2021/12/24 09:53:01;;;;;;;11.40;6.37;;;9.60;99.90;9.40;100444.00;;;;5089224;28;20218;-68
2021/12/24 09:55:44;;;;;;;6.13;2.77;;;9.60;99.90;9.50;100448.00;;;;5072433;28;20191;-68
2021/12/24 09:58:23;;;;;;;6.37;4.17;;;9.70;99.90;9.00;100432.00;;;;5072205;28;20186;-68
2021/12/24 10:01:01;;;;;;;7.30;4.43;;;9.50;99.90;8.90;100433.00;;;;5072482;28;20194;-68
2021/12/24 10:04:04;;;;;;;0.50;0.50;;;9.40;99.90;9.10;100438.00;;;;5072122;28;20196;-68
2021/12/24 10:06:39;;;;;;;10.63;7.93;;;9.40;99.90;9.10;100425.00;;;;5073142;28;20599;-68
2021/12/24 10:09:19;;;;;;;1.70;1.60;;;9.40;99.90;9.20;100433.00;;;;5072415;28;20616;-68
2021/12/24 10:12:07;;;;;;;1.03;0.97;;;9.50;99.90;9.20;100435.00;;;;5073570;28;20208;-68
2021/12/24 10:14:58;;;;;;;0.63;0.63;;;9.50;99.90;9.50;100418.00;;;;5071960;28;20176;-68
2021/12/24 10:17:41;;;;;;;0.80;0.80;;;9.50;99.90;9.90;100421.00;;;;5072121;28;20256;-68
2021/12/24 10:20:18;;;;;;;1.13;1.13;;;9.80;99.90;9.60;100419.00;;;;5073258;28;20628;-68
2021/12/24 10:33:28;;;;;;;4.90;3.77;;;9.40;99.90;9.00;100417.00;;;;5070367;28;21130;-69
2021/12/24 10:36:32;;;;;;;17.33;9.73;;;9.50;99.90;9.40;100426.00;;;;5049349;28;20189;-68
2021/12/24 10:39:11;;;;;;;2.13;2.00;;;9.60;99.90;9.10;100425.00;;;;5048440;28;20196;-68
2021/12/24 10:41:55;;;;;;;0.50;0.50;;;9.50;99.90;9.20;100413.00;;;;5049372;28;20184;-69
2021/12/24 10:44:42;;;;;;;0.40;0.40;;;9.60;99.90;9.70;100413.00;;;;5049041;28;20634;-68
2021/12/24 10:47:37;;;;;;;4.13;3.77;;;9.70;99.90;9.60;100414.00;;;;5049465;28;20172;-69
2021/12/24 10:53:19;;;;;;;4.83;3.80;;;9.70;99.90;9.40;100406.00;;;;5050341;28;20300;-70
2021/12/24 10:55:56;;;;;;;2.20;2.00;;;9.70;99.90;9.20;100406.00;;;;5049168;28;20174;-69
2021/12/24 10:58:35;;;;;;;2.60;2.20;;;9.60;99.90;9.70;100397.00;;;;5032547;28;20209;-68
2021/12/24 11:01:17;;;;;;;2.90;2.73;;;9.70;99.90;9.80;100388.00;;;;5049191;28;20266;-69
2021/12/24 11:04:00;;;;;;;11.30;7.43;;;9.70;99.90;9.60;100391.00;;;;5032649;28;20186;-68
2021/12/24 11:06:43;;;;;;;6.33;4.47;;;9.80;99.90;9.50;100362.00;;;;5049053;28;20159;-69
2021/12/24 11:09:16;;;;;;;10.00;6.53;;;9.80;99.90;9.60;100401.00;;;;5048564;28;20178;-69
2021/12/24 11:11:58;;;;;;;0.30;0.30;;;9.70;99.90;10.00;100401.00;;;;5049761;28;20205;-68
2021/12/24 11:14:37;;;;;;;1.17;1.17;;;9.90;99.90;9.50;100396.00;;;;5049794;28;20189;-69
2021/12/24 11:17:38;;;;;;;0.30;0.30;;;9.80;99.90;10.00;100396.00;;;;5048774;28;20528;-68
2021/12/24 11:20:12;;;;;;;1.37;1.37;;;10.00;99.90;10.20;100400.00;;;;5081885;28;20187;-69
2021/12/24 11:22:59;;;;;;;0.50;0.50;;;10.10;99.90;10.20;100387.00;;;;5048830;28;20188;-69
2021/12/24 11:25:46;;;;;;;0.40;0.40;;;10.20;99.90;10.00;100385.00;;;;5049728;28;20208;-68
2021/12/24 11:28:23;;;;;;;1.20;1.20;;;10.00;99.90;10.40;100389.00;;;;5049573;28;20201;-69
2021/12/24 11:31:04;;;;;;;6.80;3.60;;;10.10;99.90;10.60;100384.00;;;;5048214;28;20192;-69
2021/12/24 11:33:45;;;;;;;0.67;0.67;;;10.30;99.90;10.10;100381.00;;;;5032353;28;20205;-69
2021/12/24 11:36:24;;;;;;;2.97;2.60;;;10.10;99.90;9.80;100362.00;;;;5048321;28;20248;-68
2021/12/24 11:39:05;;;;;;;1.27;1.10;;;9.90;99.90;9.70;100367.00;;;;5049493;28;20189;-68
2021/12/24 11:41:42;;;;;;;1.60;1.50;;;9.80;99.90;9.60;100371.00;;;;5047944;28;20181;-68
2021/12/24 11:44:22;;;;;;;2.37;2.17;;;9.80;99.90;9.30;100365.00;;;;5037440;28;20189;-68
2021/12/24 11:46:56;;;;;;;3.00;2.20;;;9.70;99.90;10.00;100372.00;;;;5035010;28;20660;-68
2021/12/24 11:49:31;;;;;;;3.03;2.17;;;9.90;99.90;9.60;100366.00;;;;5018315;28;20190;-69
2021/12/24 11:52:08;;;;;;;0.77;0.77;;;9.90;99.90;9.50;100375.00;;;;5035824;28;20214;-68
2021/12/24 11:54:42;;;;;;;3.10;1.97;;;9.70;99.90;10.10;100370.00;;;;5034773;28;20185;-68
2021/12/24 11:57:23;;;;;;;9.20;7.37;;;9.90;99.90;9.90;100369.00;;;;5034673;28;20183;-68
2021/12/24 11:59:57;;;;;;;3.93;3.60;;;9.90;99.90;10.10;100380.00;;;;5035922;28;20257;-69
2021/12/24 12:02:45;;;;;;;8.93;3.53;;;9.90;99.90;9.50;100378.00;;;;5034425;28;20172;-69
2021/12/24 12:05:28;;;;;;;1.60;1.50;;;9.80;99.90;9.00;100370.00;;;;5034720;28;20616;-68
2021/12/24 12:08:27;;;;;;;9.30;6.73;;;9.50;99.90;8.90;100370.00;;;;5035849;28;20224;-68
2021/12/24 12:11:16;;;;;;;5.93;3.93;;;9.30;99.90;8.80;100366.00;;;;5033137;28;20195;-68
2021/12/24 12:14:01;;;;;;;8.63;5.73;;;9.20;99.90;9.20;100355.00;;;;5035361;28;20649;-68
2021/12/24 12:16:58;;;;;;;1.77;1.37;;;9.40;99.90;9.00;100368.00;;;;5035730;28;20225;-68
2021/12/24 12:19:45;;;;;;;8.00;6.37;;;9.40;99.90;8.90;100315.00;;;;5034285;28;20637;-68
2021/12/24 12:25:09;;;;;;;7.37;6.40;;;9.30;99.90;9.40;100378.00;;;;5034034;28;20697;-68
2021/12/24 12:28:00;;;;;;;0.20;0.20;;;9.40;99.90;9.60;100377.00;;;;5033483;28;20178;-68
2021/12/24 12:30:48;;;;;;;1.43;1.33;;;9.50;99.90;9.70;100374.00;;;;5035265;28;20171;-68
2021/12/24 12:33:36;;;;;;;5.70;4.67;;;9.70;99.90;9.70;100331.00;;;;5033840;28;20242;-69
2021/12/24 12:36:15;;;;;;;1.07;0.97;;;9.70;99.90;9.20;100374.00;;;;5033329;28;20191;-68
2021/12/24 12:38:51;;;;;;;10.60;5.40;;;9.50;99.90;9.40;100378.00;;;;5033527;28;20188;-68
2021/12/24 12:41:38;;;;;;;2.77;1.50;;;9.50;99.90;9.80;100364.00;;;;5034264;28;20195;-68
2021/12/24 12:44:18;;;;;;;3.50;3.20;;;9.70;99.90;9.10;100354.00;;;;5017512;28;20190;-68
2021/12/24 12:47:11;;;;;;;3.03;2.60;;;9.50;99.90;9.20;100361.00;;;;5017499;28;20180;-68
2021/12/24 12:50:06;;;;;;;8.53;6.50;;;9.40;99.90;9.00;100348.00;;;;5033729;28;20642;-68
2021/12/24 12:52:42;;;;;;;4.33;3.07;;;9.30;99.90;9.00;100348.00;;;;5030304;28;20290;-69
2021/12/24 12:55:36;;;;;;;0.70;0.70;;;9.30;99.90;9.30;100347.00;;;;5015834;28;20197;-68
2021/12/24 12:58:26;;;;;;;2.13;2.03;;;9.40;99.90;9.30;100348.00;;;;5033728;28;20179;-68
2021/12/24 13:01:14;;;;;;;3.80;1.90;;;9.40;99.90;9.60;100349.00;;;;5017001;28;20225;-68
2021/12/24 13:04:03;;;;;;;1.37;1.27;;;9.60;99.90;9.40;100302.00;;;;5034659;28;20255;-69
2021/12/24 13:06:43;;;;;;;5.60;4.63;;;9.50;99.90;9.50;100339.00;;;;5034391;28;20183;-68
2021/12/24 13:09:37;;;;;;;0.53;0.53;;;9.50;99.90;9.30;100320.00;;;;5034174;28;20637;-69
2021/12/24 13:12:11;;;;;;;0.47;0.47;;;9.50;99.90;9.20;100331.00;;;;5033972;28;20241;-68
2021/12/24 13:14:49;;;;;;;0.93;0.93;;;9.40;99.90;9.10;100318.00;;;;5017059;28;20178;-68
2021/12/24 13:17:35;;;;;;;4.10;3.23;;;9.40;99.90;9.60;100315.00;;;;5033217;28;20547;-69
2021/12/24 13:20:16;;;;;;;3.10;1.43;;;9.60;99.90;9.30;100321.00;;;;5033090;28;20622;-69
2021/12/24 13:22:52;;;;;;;0.30;0.30;;;9.50;99.90;9.30;100319.00;;;;5034423;28;20676;-67
2021/12/24 13:25:28;;;;;;;4.70;2.30;;;9.50;99.90;9.90;100304.00;;;;5034364;28;20172;-67
2021/12/24 13:28:07;;;;;;;1.30;1.20;;;9.70;99.90;9.80;100269.00;;;;5034031;28;20170;-66
2021/12/24 13:30:44;;;;;;;3.93;3.63;;;9.70;99.90;9.50;100301.00;;;;5032903;28;20178;-66
2021/12/24 13:33:18;;;;;;;0.30;0.30;;;9.70;99.90;10.20;100293.00;;;;5034215;28;20217;-67
2021/12/24 13:35:55;;;;;;;3.43;3.17;;;9.90;99.90;9.60;100296.00;;;;5032843;28;20185;-67
2021/12/24 13:38:37;;;;;;;4.97;4.37;;;9.90;99.90;10.30;100313.00;;;;5033661;28;20612;-69